Time;durP1;ratioP1;P1;durP2;ratioP2;P2;SDS_P1;SDS_P2;PMS_P1;PMS_P2;Temp;Humidity;BMP_temperature;BMP_pressure;BME280_temperature;BME280_humidity;BME280_pressure;Samples;Min_cycle;Max_cycle;Signal;HPM_P1;HPM_P2
2022/11/18 00:01:50;;;;;;;8.10;3.08;;;;;;;9.82;40.48;102279.09;4947200;28;20051;-80
2022/11/18 00:04:19;;;;;;;7.18;2.60;;;;;;;9.81;39.87;102287.66;4948423;28;20070;-78
2022/11/18 00:06:47;;;;;;;5.00;2.40;;;;;;;9.77;40.15;102285.69;4951873;28;20521;-80
2022/11/18 00:09:16;;;;;;;6.25;2.65;;;;;;;9.72;39.37;102276.78;4952067;28;20046;-81
2022/11/18 00:14:32;;;;;;;6.35;2.55;;;;;;;9.58;40.32;102291.50;4950327;28;20065;-79
2022/11/18 00:17:02;;;;;;;9.35;2.95;;;;;;;9.47;39.55;102303.78;4949606;28;20081;-83
2022/11/18 00:19:33;;;;;;;5.90;2.45;;;;;;;9.41;40.48;102303.41;4950262;28;21017;-82
2022/11/18 00:22:02;;;;;;;6.57;2.75;;;;;;;9.37;40.33;102304.06;4951933;28;20134;-79
2022/11/18 00:24:31;;;;;;;6.95;2.53;;;;;;;9.32;40.79;102298.63;4951070;28;20969;-81
2022/11/18 00:27:02;;;;;;;6.90;3.33;;;;;;;9.28;41.25;102303.47;4954192;28;20525;-81
2022/11/18 00:29:31;;;;;;;7.32;3.00;;;;;;;9.21;40.13;102307.41;4949679;28;20677;-80
2022/11/18 00:32:00;;;;;;;3.95;2.33;;;;;;;9.16;41.17;102308.81;4950426;28;20504;-80
2022/11/18 00:34:28;;;;;;;5.40;2.67;;;;;;;9.08;40.96;102308.34;4948907;28;20110;-80
2022/11/18 00:36:57;;;;;;;5.90;2.65;;;;;;;9.00;40.88;102313.06;4952442;28;20473;-80
2022/11/18 00:39:26;;;;;;;9.68;2.90;;;;;;;8.92;41.72;102319.44;4950250;28;20050;-81
2022/11/18 00:44:42;;;;;;;5.55;2.78;;;;;;;8.84;41.89;102323.22;4945799;28;20062;-80
2022/11/18 00:47:10;;;;;;;6.82;2.85;;;;;;;8.79;41.59;102312.63;4949313;28;21009;-80
2022/11/18 00:49:39;;;;;;;7.03;2.72;;;;;;;8.72;42.17;102314.75;4946808;28;20058;-79
2022/11/18 00:52:08;;;;;;;6.90;2.60;;;;;;;8.65;42.76;102322.91;4951568;28;20390;-80
2022/11/18 00:54:37;;;;;;;5.45;2.75;;;;;;;8.51;43.50;102309.16;4950540;28;20055;-79
2022/11/18 00:57:05;;;;;;;7.40;2.85;;;;;;;8.53;42.28;102323.03;4947034;28;20138;-79
2022/11/18 00:59:34;;;;;;;4.07;1.85;;;;;;;8.42;43.13;102322.34;4949023;28;20043;-78
2022/11/18 01:02:04;;;;;;;6.55;2.50;;;;;;;8.33;43.74;102319.16;4948874;28;20059;-80
2022/11/18 01:04:33;;;;;;;6.72;3.35;;;;;;;8.29;43.36;102322.31;4945866;28;20178;-80
2022/11/18 01:07:02;;;;;;;8.77;3.00;;;;;;;8.23;42.83;102314.22;4948717;28;20405;-78
2022/11/18 01:09:34;;;;;;;5.57;2.08;;;;;;;8.16;43.33;102316.41;4948384;28;20515;-80
2022/11/18 01:14:47;;;;;;;3.00;2.65;;;;;;;8.07;43.90;102320.97;4947615;28;20556;-80
2022/11/18 01:17:18;;;;;;;7.78;2.80;;;;;;;8.03;42.52;102329.28;4951531;28;20545;-76
2022/11/18 01:19:47;;;;;;;4.45;2.42;;;;;;;7.96;42.06;102327.09;4949080;28;20651;-79
2022/11/18 01:22:15;;;;;;;8.80;2.40;;;;;;;7.93;42.46;102329.50;4951896;28;20051;-77
2022/11/18 01:24:46;;;;;;;5.45;2.35;;;;;;;7.92;43.08;102335.41;4949952;28;20039;-78
2022/11/18 01:27:15;;;;;;;4.60;2.08;;;;;;;7.88;42.57;102328.28;4953114;28;20047;-79
2022/11/18 01:29:44;;;;;;;5.40;2.60;;;;;;;7.86;43.30;102335.03;4949175;28;20130;-85
2022/11/18 01:32:13;;;;;;;4.68;2.45;;;;;;;7.82;43.68;102340.78;4949037;28;20691;-78
2022/11/18 01:34:43;;;;;;;6.75;2.90;;;;;;;7.76;43.33;102334.44;4952418;28;20059;-80
2022/11/18 01:37:12;;;;;;;4.45;2.45;;;;;;;7.75;42.32;102340.34;4949737;28;20043;-80
2022/11/18 01:39:40;;;;;;;4.65;2.10;;;;;;;7.72;42.70;102340.16;4944295;28;20046;-77
2022/11/18 01:42:15;;;;;;;7.13;2.50;;;;;;;7.67;42.63;102333.81;4947957;28;20141;-81
2022/11/18 01:45:16;;;;;;;5.07;2.78;;;;;;;7.65;43.28;102345.72;4950928;28;20047;-83
2022/11/18 01:47:49;;;;;;;4.80;2.13;;;;;;;7.61;42.77;102343.72;4937648;28;20494;-79
2022/11/18 01:50:22;;;;;;;6.03;2.47;;;;;;;7.59;42.83;102345.28;4950346;28;20077;-79
2022/11/18 01:52:54;;;;;;;5.00;2.45;;;;;;;7.56;42.62;102339.94;4943862;28;20051;-77
2022/11/18 01:55:26;;;;;;;5.97;2.55;;;;;;;7.52;43.46;102338.81;4945091;28;20521;-79
2022/11/18 01:58:02;;;;;;;7.15;2.53;;;;;;;7.51;41.90;102342.22;4951144;28;20050;-78
2022/11/18 02:00:31;;;;;;;5.25;2.15;;;;;;;7.47;45.38;102357.34;4944697;28;20050;-80
2022/11/18 02:03:01;;;;;;;4.82;2.05;;;;;;;7.44;45.78;102359.69;4946899;28;20073;-80
2022/11/18 02:05:34;;;;;;;6.60;2.70;;;;;;;7.38;44.58;102359.31;4941482;28;20043;-80
2022/11/18 02:08:03;;;;;;;7.18;2.92;;;;;;;7.30;44.20;102362.22;4947624;28;20051;-79
2022/11/18 02:10:32;;;;;;;7.40;2.50;;;;;;;7.26;43.83;102362.81;4949483;28;20082;-76
2022/11/18 02:13:02;;;;;;;6.97;2.47;;;;;;;7.20;43.67;102359.81;4950665;28;20105;-79
2022/11/18 02:15:46;;;;;;;5.70;2.25;;;;;;;7.17;43.94;102369.00;4949724;28;20051;-77
2022/11/18 02:18:25;;;;;;;4.68;2.35;;;;;;;7.10;44.07;102367.69;4947723;28;20055;-81
2022/11/18 02:21:03;;;;;;;4.53;2.30;;;;;;;7.05;44.37;102367.34;4951472;28;20047;-82
2022/11/18 02:24:07;;;;;;;5.70;2.63;;;;;;;7.05;43.71;102364.78;4953778;28;20055;-78
2022/11/18 02:26:51;;;;;;;;;;;;;;;7.04;44.51;102375.88;4948935;28;20047;-79
2022/11/18 02:29:27;;;;;;;6.43;2.47;;;;;;;7.00;45.07;102372.97;4950473;28;19929;-83
2022/11/18 02:32:01;;;;;;;4.63;2.03;;;;;;;6.97;44.55;102368.53;4949952;28;20632;-79
2022/11/18 02:34:41;;;;;;;4.50;2.53;;;;;;;6.93;43.23;102358.78;4950810;28;20051;-81
2022/11/18 02:37:18;;;;;;;4.43;2.58;;;;;;;6.96;43.62;102360.69;4947422;28;20043;-79
2022/11/18 02:39:53;;;;;;;6.65;2.53;;;;;;;6.95;43.53;102353.75;4944564;28;20051;-81
2022/11/18 02:42:25;;;;;;;5.88;2.35;;;;;;;6.95;43.20;102366.63;4942225;28;20044;-79
2022/11/18 02:44:59;;;;;;;3.92;2.03;;;;;;;6.92;43.16;102360.47;4946879;28;20035;-77
2022/11/18 02:47:30;;;;;;;5.28;2.58;;;;;;;6.92;43.63;102368.19;4949872;28;20235;-78
2022/11/18 02:50:04;;;;;;;6.25;2.42;;;;;;;6.90;43.49;102364.63;4942190;28;20055;-78
2022/11/18 02:52:36;;;;;;;4.80;2.45;;;;;;;6.87;43.85;102360.94;4950337;28;20139;-78
2022/11/18 02:55:09;;;;;;;6.43;2.25;;;;;;;6.85;43.50;102354.78;4951698;28;20050;-78
2022/11/18 02:57:40;;;;;;;4.75;2.20;;;;;;;6.81;43.58;102343.41;4954760;28;20052;-76
2022/11/18 03:00:12;;;;;;;5.53;2.33;;;;;;;6.79;43.84;102347.53;4954082;28;20057;-78
2022/11/18 03:02:46;;;;;;;4.90;1.95;;;;;;;6.78;44.38;102350.91;4953924;28;20051;-78
2022/11/18 03:05:26;;;;;;;3.13;1.92;;;;;;;6.79;43.28;102344.97;4951139;28;20051;-77
2022/11/18 03:08:02;;;;;;;6.80;2.10;;;;;;;6.79;43.83;102355.25;4953545;28;20057;-79
2022/11/18 03:10:36;;;;;;;4.32;2.08;;;;;;;6.78;43.56;102363.78;4950164;28;20053;-80
2022/11/18 03:13:13;;;;;;;7.55;2.40;;;;;;;6.74;43.84;102356.63;4950240;28;20051;-79
2022/11/18 03:15:52;;;;;;;7.90;2.33;;;;;;;6.71;43.15;102356.38;4951601;28;20556;-78
2022/11/18 03:18:27;;;;;;;5.72;2.50;;;;;;;6.61;43.64;102343.66;4951870;28;20043;-78
2022/11/18 03:21:03;;;;;;;4.47;1.95;;;;;;;6.62;45.71;102350.59;4952438;28;20073;-77
2022/11/18 03:23:37;;;;;;;5.25;1.88;;;;;;;6.59;44.45;102366.69;4958645;28;20047;-78
2022/11/18 03:26:10;;;;;;;7.00;2.30;;;;;;;6.55;44.78;102364.72;4956115;28;20060;-77
2022/11/18 03:28:46;;;;;;;5.63;1.98;;;;;;;6.54;44.73;102360.34;4948203;28;20055;-79
2022/11/18 03:31:21;;;;;;;3.13;1.92;;;;;;;6.53;44.63;102361.13;4945943;28;20073;-79
2022/11/18 03:33:53;;;;;;;7.50;2.65;;;;;;;6.48;43.78;102347.94;4955326;28;20097;-78
2022/11/18 03:36:26;;;;;;;4.82;2.55;;;;;;;6.49;43.46;102346.25;4949820;28;20052;-80
2022/11/18 03:38:59;;;;;;;5.65;2.28;;;;;;;6.50;45.05;102350.59;4949070;28;20055;-77
2022/11/18 03:41:32;;;;;;;5.65;1.90;;;;;;;6.47;44.23;102356.44;4947440;28;20053;-77
2022/11/18 03:44:07;;;;;;;6.43;2.22;;;;;;;6.50;43.72;102359.25;4945978;28;20533;-79
2022/11/18 03:46:43;;;;;;;3.63;1.60;;;;;;;6.43;43.88;102343.25;4951874;28;20047;-80
2022/11/18 03:49:23;;;;;;;3.15;1.67;;;;;;;6.48;42.73;102355.66;4940683;28;20155;-77
2022/11/18 03:51:56;;;;;;;3.85;1.85;;;;;;;6.48;43.15;102352.19;4945475;28;20114;-77
2022/11/18 03:54:28;;;;;;;4.38;2.00;;;;;;;6.46;43.92;102357.22;4954941;28;20051;-78
2022/11/18 03:57:01;;;;;;;5.27;2.23;;;;;;;6.41;43.82;102353.41;4953259;28;20055;-76
2022/11/18 03:59:35;;;;;;;3.17;1.90;;;;;;;6.39;44.09;102359.22;4953477;28;20047;-75
2022/11/18 04:02:14;;;;;;;5.28;2.33;;;;;;;6.32;44.30;102357.88;4948043;28;20090;-77
2022/11/18 04:04:45;;;;;;;7.75;2.40;;;;;;;6.28;45.22;102363.63;4949457;28;20054;-77
2022/11/18 04:07:25;;;;;;;4.57;1.98;;;;;;;6.20;44.45;102367.28;4951791;28;20050;-77
2022/11/18 04:09:58;;;;;;;7.28;2.63;;;;;;;6.17;44.21;102380.81;4947829;28;20114;-78
2022/11/18 04:12:32;;;;;;;5.70;1.88;;;;;;;6.11;45.41;102374.34;4946013;28;20055;-77
2022/11/18 04:15:00;;;;;;;4.78;2.45;;;;;;;6.04;45.08;102372.97;4948515;28;20063;-78
2022/11/18 04:17:33;;;;;;;4.80;2.00;;;;;;;6.02;45.43;102364.25;4952583;28;20051;-77
2022/11/18 04:20:02;;;;;;;3.15;2.20;;;;;;;6.01;45.02;102360.81;4953675;28;20058;-77
2022/11/18 04:22:31;;;;;;;3.58;2.13;;;;;;;5.98;44.90;102383.72;4951686;28;20043;-78
2022/11/18 04:25:00;;;;;;;5.35;1.90;;;;;;;5.97;44.89;102387.06;4952773;28;20062;-79
2022/11/18 04:27:28;;;;;;;5.35;2.10;;;;;;;5.98;45.76;102381.16;4951081;28;20073;-77
2022/11/18 04:29:57;;;;;;;6.07;2.80;;;;;;;5.96;45.15;102375.00;4953863;28;20103;-77
2022/11/18 04:32:26;;;;;;;7.15;2.30;;;;;;;5.87;43.59;102366.56;4950204;28;20047;-76
2022/11/18 04:34:56;;;;;;;4.40;2.05;;;;;;;5.95;44.15;102383.47;4953452;28;20126;-79
2022/11/18 04:37:25;;;;;;;3.97;2.08;;;;;;;5.92;45.51;102393.50;4949453;28;20517;-79
2022/11/18 04:39:54;;;;;;;5.13;2.13;;;;;;;5.91;44.62;102390.81;4944282;28;20048;-77
2022/11/18 04:42:25;;;;;;;4.40;1.92;;;;;;;5.88;44.94;102381.19;4941179;28;20548;-78
2022/11/18 04:44:54;;;;;;;4.43;2.55;;;;;;;5.81;45.34;102371.25;4951062;28;20921;-76
2022/11/18 04:47:22;;;;;;;6.25;3.08;;;;;;;5.81;46.36;102379.84;4950462;28;20079;-78
2022/11/18 04:49:53;;;;;;;4.80;1.70;;;;;;;5.75;46.39;102373.34;4951305;28;20397;-77
2022/11/18 04:52:23;;;;;;;6.07;1.95;;;;;;;5.67;46.40;102381.38;4946106;28;20290;-79
2022/11/18 04:54:52;;;;;;;3.65;1.70;;;;;;;5.62;46.38;102381.81;4939601;28;20043;-78
2022/11/18 04:57:21;;;;;;;4.53;1.85;;;;;;;5.57;45.08;102378.03;4939433;28;20055;-78
2022/11/18 04:59:49;;;;;;;5.45;2.53;;;;;;;5.55;45.80;102383.03;4946365;28;20055;-78
2022/11/18 05:02:21;;;;;;;5.18;2.25;;;;;;;5.53;45.63;102382.00;4943607;28;20239;-78
2022/11/18 05:04:49;;;;;;;5.00;1.92;;;;;;;5.49;45.61;102385.13;4951262;28;20051;-77
2022/11/18 05:07:18;;;;;;;6.10;1.70;;;;;;;5.44;45.03;102389.03;4952159;28;20085;-78
2022/11/18 05:09:48;;;;;;;5.93;2.20;;;;;;;5.44;45.33;102392.47;4949491;28;20051;-79
2022/11/18 05:15:03;;;;;;;4.38;1.63;;;;;;;5.45;45.32;102393.34;4948994;28;20073;-78
2022/11/18 05:17:32;;;;;;;3.97;1.63;;;;;;;5.45;45.34;102403.63;4947373;28;20051;-78
2022/11/18 05:20:01;;;;;;;4.03;2.00;;;;;;;5.40;46.62;102405.84;4950801;28;20050;-80
2022/11/18 05:22:30;;;;;;;3.42;1.80;;;;;;;5.36;45.84;102402.91;4949058;28;20054;-79
2022/11/18 05:25:00;;;;;;;7.25;2.40;;;;;;;5.31;45.77;102414.53;4945043;28;20091;-78
2022/11/18 05:27:29;;;;;;;3.45;1.90;;;;;;;5.24;45.61;102414.06;4944179;28;20055;-78
2022/11/18 05:29:57;;;;;;;4.38;2.20;;;;;;;5.21;45.63;102416.38;4948021;28;20055;-77
2022/11/18 05:32:26;;;;;;;6.22;2.70;;;;;;;5.17;45.61;102416.91;4952180;28;20154;-79
2022/11/18 05:35:02;;;;;;;5.05;1.98;;;;;;;5.19;45.70;102409.34;4947961;28;20076;-77
2022/11/18 05:37:34;;;;;;;4.43;2.35;;;;;;;5.15;45.90;102400.50;4941376;28;20047;-75
2022/11/18 05:40:13;;;;;;;5.72;2.13;;;;;;;5.11;45.55;102400.13;4941522;28;20051;-78
2022/11/18 05:45:28;;;;;;;5.00;1.90;;;;;;;5.00;44.90;102391.63;4948463;28;20134;-79
2022/11/18 05:48:03;;;;;;;5.32;2.15;;;;;;;5.01;45.76;102398.53;4949757;28;20058;-78
2022/11/18 05:50:32;;;;;;;3.53;2.10;;;;;;;5.01;47.20;102408.78;4949486;28;20165;-78
2022/11/18 05:53:01;;;;;;;4.10;2.28;;;;;;;4.94;45.99;102414.22;4946837;28;20130;-77
2022/11/18 05:55:36;;;;;;;6.00;2.35;;;;;;;4.95;45.09;102423.72;4946054;28;20121;-82
2022/11/18 05:58:05;;;;;;;5.47;2.20;;;;;;;4.92;46.14;102423.47;4946339;28;20062;-80
2022/11/18 06:00:34;;;;;;;6.47;1.70;;;;;;;4.89;45.51;102426.69;4945369;28;20086;-79
2022/11/18 06:03:03;;;;;;;5.05;2.42;;;;;;;4.78;45.71;102410.44;4938718;28;20043;-81
2022/11/18 06:05:32;;;;;;;7.97;2.25;;;;;;;4.85;45.08;102436.56;4947838;28;20082;-81
2022/11/18 06:08:00;;;;;;;7.25;2.58;;;;;;;4.77;45.30;102431.72;4948964;28;20629;-80
2022/11/18 06:10:33;;;;;;;2.72;1.85;;;;;;;4.76;46.14;102431.59;4948317;28;20051;-80
2022/11/18 06:13:03;;;;;;;;;;;;;;;4.72;46.16;102433.03;4944912;28;20051;-80
2022/11/18 06:15:36;;;;;;;2.78;1.70;;;;;;;4.66;46.32;102434.22;4948791;28;20494;-80
2022/11/18 06:18:06;;;;;;;;;;;;;;;4.65;46.02;102438.47;4945869;28;20114;-80
2022/11/18 06:20:37;;;;;;;4.88;2.00;;;;;;;4.63;45.27;102432.31;4953943;28;20470;-80
2022/11/18 06:23:05;;;;;;;4.13;1.45;;;;;;;4.64;46.10;102433.19;4950204;28;20051;-80
2022/11/18 06:25:39;;;;;;;3.83;2.22;;;;;;;4.62;47.87;102441.63;4943988;28;20054;-80
2022/11/18 06:28:10;;;;;;;5.00;2.03;;;;;;;4.61;48.71;102444.09;4941447;28;20043;-79
2022/11/18 06:30:39;;;;;;;3.60;1.40;;;;;;;4.59;48.28;102443.09;4944331;28;20054;-81
2022/11/18 06:33:07;;;;;;;4.10;1.50;;;;;;;4.59;48.45;102448.22;4946277;28;20489;-76
2022/11/18 06:35:36;;;;;;;4.78;1.90;;;;;;;4.58;48.71;102441.28;4945671;28;20051;-77
2022/11/18 06:38:05;;;;;;;5.15;2.08;;;;;;;4.59;46.96;102443.09;4941290;28;20065;-77
2022/11/18 06:40:36;;;;;;;3.85;1.80;;;;;;;4.61;45.95;102436.41;4948736;28;20047;-76
2022/11/18 06:48:37;;;;;;;10.02;2.45;;;;;;;4.76;44.85;102426.47;4946487;28;20055;-77
2022/11/18 06:51:06;;;;;;;7.38;2.03;;;;;;;4.78;44.48;102418.13;4945538;28;20051;-76
2022/11/18 06:53:35;;;;;;;3.67;1.95;;;;;;;4.78;45.63;102413.00;4945464;28;20060;-76
2022/11/18 06:56:07;;;;;;;4.47;2.08;;;;;;;4.69;45.46;102408.81;4948129;28;20043;-75
2022/11/18 06:58:36;;;;;;;5.00;1.75;;;;;;;4.75;45.71;102409.31;4950549;28;20051;-76
2022/11/18 07:01:11;;;;;;;6.72;1.95;;;;;;;4.74;45.56;102410.97;4944956;28;20055;-76
2022/11/18 07:03:41;;;;;;;8.05;2.08;;;;;;;4.71;44.86;102418.41;4945926;28;20216;-76
2022/11/18 07:06:11;;;;;;;3.85;1.60;;;;;;;4.72;44.90;102414.16;4951175;28;20059;-76
2022/11/18 07:08:41;;;;;;;4.68;2.13;;;;;;;4.70;44.81;102411.50;4943277;28;20052;-75
2022/11/18 07:11:27;;;;;;;6.30;2.03;;;;;;;4.61;44.56;102401.41;4951172;28;20697;-75
2022/11/18 07:13:56;;;;;;;5.03;1.80;;;;;;;4.68;45.94;102407.91;4945442;28;20071;-76
2022/11/18 07:16:35;;;;;;;6.85;2.13;;;;;;;4.71;44.66;102413.28;4941288;28;20051;-75
2022/11/18 07:19:08;;;;;;;4.82;1.83;;;;;;;4.72;45.08;102407.41;4950728;28;20071;-75
2022/11/18 07:21:37;;;;;;;3.58;1.75;;;;;;;4.67;43.59;102406.13;4949511;28;20054;-74
2022/11/18 07:24:08;;;;;;;5.63;2.22;;;;;;;4.70;44.69;102423.44;4946984;28;20054;-75
2022/11/18 07:26:38;;;;;;;4.13;2.35;;;;;;;4.62;44.54;102416.00;4948936;28;20059;-75
2022/11/18 07:29:07;;;;;;;5.05;2.20;;;;;;;4.59;43.13;102423.47;4947261;28;20058;-75
2022/11/18 07:31:39;;;;;;;5.00;1.85;;;;;;;4.59;43.56;102420.00;4945008;28;20047;-75
2022/11/18 07:34:10;;;;;;;6.75;2.10;;;;;;;4.56;44.12;102438.59;4947619;28;20527;-75
2022/11/18 07:36:39;;;;;;;4.18;2.08;;;;;;;4.48;44.38;102433.63;4949424;28;20055;-76
2022/11/18 07:39:08;;;;;;;3.50;1.70;;;;;;;4.49;44.05;102432.84;4947272;28;20051;-75
2022/11/18 07:41:41;;;;;;;2.70;1.80;;;;;;;4.50;43.58;102437.22;4949218;28;20054;-76
2022/11/18 07:44:12;;;;;;;;;;;;;;;4.46;43.92;102417.22;4952157;28;20047;-75
2022/11/18 07:46:41;;;;;;;5.70;2.40;;;;;;;4.44;46.49;102423.88;4956375;28;19926;-76
2022/11/18 07:49:10;;;;;;;4.25;2.08;;;;;;;4.43;45.14;102424.69;4950286;28;20051;-75
2022/11/18 07:51:57;;;;;;;;;;;;;;;;;;;;;
2022/11/18 07:54:23;;;;;;;2.45;1.38;;;;;;;4.51;43.37;102428.75;4949417;28;20055;-75
2022/11/18 07:57:00;;;;;;;3.72;1.38;;;;;;;4.54;44.00;102431.56;4954607;28;20110;-75
2022/11/18 07:59:30;;;;;;;5.13;2.28;;;;;;;4.57;43.38;102429.25;4947700;28;20057;-75
2022/11/18 08:01:59;;;;;;;3.63;2.10;;;;;;;4.58;43.94;102425.88;4951280;28;20051;-76
2022/11/18 08:04:27;;;;;;;2.58;1.48;;;;;;;4.58;43.24;102441.28;4949294;28;20414;-76
2022/11/18 08:06:58;;;;;;;2.92;1.38;;;;;;;4.59;42.92;102435.38;4952455;28;20138;-75
2022/11/18 08:09:27;;;;;;;4.32;2.28;;;;;;;4.58;43.75;102443.84;4947960;28;20062;-73
2022/11/18 08:11:55;;;;;;;6.10;1.80;;;;;;;4.59;44.08;102443.97;4951460;28;20063;-76
2022/11/18 08:14:26;;;;;;;2.90;1.02;;;;;;;4.62;42.76;102443.31;4948431;28;20051;-75
2022/11/18 08:16:54;;;;;;;6.70;1.48;;;;;;;4.66;42.71;102444.47;4948947;28;20066;-75
2022/11/18 08:19:23;;;;;;;3.60;1.50;;;;;;;4.68;42.53;102448.94;4950843;28;20058;-76
2022/11/18 08:21:52;;;;;;;4.88;2.22;;;;;;;4.70;42.63;102452.53;4956733;28;20047;-76
2022/11/18 08:24:20;;;;;;;1.70;1.13;;;;;;;4.71;44.41;102445.72;4952763;28;20051;-75
2022/11/18 08:26:49;;;;;;;5.25;2.15;;;;;;;4.69;44.01;102447.28;4946507;28;20062;-75
2022/11/18 08:29:18;;;;;;;2.88;1.90;;;;;;;4.51;43.56;102408.22;4950471;28;20039;-75
2022/11/18 08:31:48;;;;;;;2.65;1.30;;;;;;;4.64;44.50;102435.75;4951899;28;20501;-76
2022/11/18 08:34:19;;;;;;;4.20;1.50;;;;;;;4.61;42.30;102433.84;4949300;28;20519;-76
2022/11/18 08:36:48;;;;;;;6.25;1.75;;;;;;;4.62;43.00;102421.13;4949243;28;20054;-76
2022/11/18 08:39:17;;;;;;;2.13;1.38;;;;;;;4.64;43.37;102405.88;4946270;28;20121;-76
2022/11/18 08:41:46;;;;;;;3.47;1.63;;;;;;;4.64;43.36;102413.56;4948750;28;20138;-75
2022/11/18 08:44:17;;;;;;;8.02;1.95;;;;;;;4.59;43.99;102409.75;4944220;28;20058;-77
2022/11/18 08:46:47;;;;;;;3.83;1.90;;;;;;;4.54;43.46;102403.38;4949698;28;20074;-76
2022/11/18 08:49:16;;;;;;;5.78;1.80;;;;;;;4.53;43.86;102402.44;4946827;28;20058;-76
2022/11/18 08:51:45;;;;;;;2.33;1.27;;;;;;;4.51;44.25;102383.50;4948851;28;20058;-76
2022/11/18 08:54:13;;;;;;;3.40;1.63;;;;;;;4.47;42.06;102390.84;4946404;28;20490;-76
2022/11/18 08:56:42;;;;;;;2.50;1.33;;;;;;;4.48;43.28;102387.50;4950954;28;20051;-76
2022/11/18 08:59:11;;;;;;;3.22;1.40;;;;;;;4.50;42.91;102383.38;4947102;28;20062;-76
2022/11/18 09:01:42;;;;;;;2.50;1.25;;;;;;;4.52;42.36;102390.41;4948273;28;20055;-76
2022/11/18 09:04:12;;;;;;;2.03;1.30;;;;;;;4.51;43.35;102385.16;4950929;28;20054;-75
2022/11/18 09:06:43;;;;;;;5.13;1.67;;;;;;;4.51;42.99;102392.84;4949649;28;20059;-76
2022/11/18 09:09:12;;;;;;;7.15;2.47;;;;;;;4.52;43.83;102387.84;4950928;28;20568;-75
2022/11/18 09:11:41;;;;;;;4.50;1.83;;;;;;;4.49;42.16;102385.06;4946853;28;20623;-76
2022/11/18 09:14:13;;;;;;;6.15;2.15;;;;;;;4.50;41.62;102385.94;4947994;28;20063;-77
2022/11/18 09:16:41;;;;;;;2.97;1.47;;;;;;;4.55;41.79;102394.91;4951627;28;20055;-77
2022/11/18 09:19:15;;;;;;;5.15;1.70;;;;;;;4.58;40.60;102392.56;4950792;28;20347;-76
2022/11/18 09:21:43;;;;;;;3.58;1.80;;;;;;;4.63;40.99;102393.84;4953025;28;20051;-77
2022/11/18 09:24:12;;;;;;;3.58;1.15;;;;;;;4.64;41.77;102395.63;4950842;28;20141;-76
2022/11/18 09:26:41;;;;;;;3.92;2.13;;;;;;;4.64;42.49;102400.75;4951342;28;20047;-76
2022/11/18 09:29:10;;;;;;;4.25;1.75;;;;;;;4.58;42.44;102390.91;4950407;28;20083;-77
2022/11/18 09:31:39;;;;;;;5.30;1.52;;;;;;;4.56;42.19;102401.84;4949825;28;20066;-76
2022/11/18 09:34:09;;;;;;;3.72;1.75;;;;;;;4.54;43.38;102390.56;4946858;28;20054;-76
2022/11/18 09:36:39;;;;;;;5.13;2.25;;;;;;;4.53;43.31;102389.63;4953983;28;20123;-76
2022/11/18 09:39:08;;;;;;;5.90;1.95;;;;;;;4.50;43.21;102375.69;4947380;28;20047;-76
2022/11/18 09:41:45;;;;;;;2.85;1.50;;;;;;;4.47;43.29;102383.16;4948764;28;20047;-76
2022/11/18 09:44:26;;;;;;;2.90;1.85;;;;;;;4.34;42.82;102356.50;4947365;28;20052;-76
2022/11/18 09:47:07;;;;;;;2.20;1.52;;;;;;;4.38;41.31;102376.50;4948773;28;20066;-77
2022/11/18 09:49:38;;;;;;;4.15;1.30;;;;;;;4.45;41.90;102371.88;4949589;28;20063;-76
2022/11/18 09:52:16;;;;;;;4.78;1.90;;;;;;;4.51;41.33;102377.47;4948090;28;20478;-77
2022/11/18 09:54:45;;;;;;;3.20;1.23;;;;;;;4.54;42.60;102373.50;4947892;28;20405;-77
2022/11/18 09:57:16;;;;;;;2.53;1.23;;;;;;;4.56;42.02;102378.75;4950050;28;20055;-76
2022/11/18 09:59:45;;;;;;;3.20;1.33;;;;;;;4.57;41.80;102385.66;4948893;28;20047;-76
2022/11/18 10:02:30;;;;;;;2.83;1.30;;;;;;;4.58;41.12;102384.88;4947987;28;20072;-76
2022/11/18 10:05:14;;;;;;;4.32;1.85;;;;;;;4.53;40.57;102391.31;4944577;28;20074;-75
2022/11/18 10:07:55;;;;;;;1.88;1.27;;;;;;;4.48;41.81;102383.25;4950121;28;20525;-76
2022/11/18 10:10:31;;;;;;;3.30;1.30;;;;;;;4.48;40.90;102383.25;4949131;28;20046;-76
2022/11/18 10:13:05;;;;;;;2.10;1.15;;;;;;;4.47;44.51;102380.59;4948586;28;20051;-75
2022/11/18 10:15:40;;;;;;;3.83;1.65;;;;;;;4.44;42.71;102390.56;4944743;28;20066;-76
2022/11/18 10:18:23;;;;;;;5.30;1.52;;;;;;;4.45;43.81;102387.25;4948319;28;20509;-77
2022/11/18 10:20:58;;;;;;;4.90;1.75;;;;;;;4.36;43.14;102372.91;4948951;28;20047;-75
2022/11/18 10:23:34;;;;;;;3.65;1.30;;;;;;;4.41;43.88;102392.09;4948152;28;20059;-76
2022/11/18 10:26:02;;;;;;;4.30;1.23;;;;;;;4.40;41.09;102399.69;4950229;28;20051;-75
2022/11/18 10:28:32;;;;;;;3.05;1.58;;;;;;;4.41;41.35;102387.00;4951130;28;20054;-76
2022/11/18 10:31:06;;;;;;;3.53;1.42;;;;;;;4.38;40.74;102376.50;4947930;28;20053;-77
2022/11/18 10:33:35;;;;;;;3.17;1.52;;;;;;;4.44;40.82;102380.31;4946186;28;20052;-77
2022/11/18 10:36:19;;;;;;;3.20;1.05;;;;;;;4.41;40.62;102376.72;4946532;28;20054;-77
2022/11/18 10:38:49;;;;;;;1.85;1.05;;;;;;;4.38;39.54;102371.38;4949828;28;20055;-76
2022/11/18 10:41:21;;;;;;;3.05;1.98;;;;;;;4.41;40.28;102371.59;4948678;28;20088;-76
2022/11/18 10:43:52;;;;;;;3.45;1.80;;;;;;;4.40;39.37;102367.28;4948671;28;20461;-76
2022/11/18 10:46:26;;;;;;;3.40;1.58;;;;;;;4.41;38.92;102363.91;4948005;28;20051;-77
2022/11/18 10:49:15;;;;;;;1.45;0.88;;;;;;;4.45;38.86;102348.81;4949383;28;20075;-76
2022/11/18 10:51:45;;;;;;;4.05;1.75;;;;;;;4.46;39.64;102353.16;4947450;28;20051;-77
2022/11/18 10:54:19;;;;;;;1.98;1.13;;;;;;;4.44;39.20;102345.31;4947555;28;20090;-77
2022/11/18 10:56:54;;;;;;;2.63;1.20;;;;;;;4.44;39.75;102358.13;4944810;28;20506;-76
2022/11/18 10:59:31;;;;;;;3.40;1.48;;;;;;;4.45;38.58;102359.06;4947601;28;20058;-76
2022/11/18 11:02:13;;;;;;;3.55;1.55;;;;;;;4.39;38.85;102352.66;4944624;28;20521;-75
2022/11/18 11:04:43;;;;;;;4.88;1.33;;;;;;;4.46;39.79;102376.22;4948485;28;20043;-75
2022/11/18 11:07:25;;;;;;;3.00;1.00;;;;;;;4.43;39.62;102378.53;4944344;28;20078;-75
2022/11/18 11:10:22;;;;;;;5.03;1.73;;;;;;;4.43;38.68;102391.34;4950230;28;20102;-75
2022/11/18 11:12:56;;;;;;;2.78;1.33;;;;;;;4.28;38.48;102378.19;4941859;28;20056;-75
2022/11/18 11:15:36;;;;;;;4.75;1.48;;;;;;;4.37;39.21;102381.50;4945510;28;20066;-75
2022/11/18 11:20:53;;;;;;;3.85;1.65;;;;;;;4.32;38.56;102385.34;4950207;28;20062;-75
2022/11/18 11:23:24;;;;;;;1.88;1.27;;;;;;;4.32;38.80;102391.38;4952822;28;20051;-75
2022/11/18 11:26:00;;;;;;;2.92;1.65;;;;;;;4.30;38.90;102395.47;4949668;28;20515;-75
2022/11/18 11:28:32;;;;;;;3.65;1.50;;;;;;;4.28;40.44;102412.38;4955093;28;20059;-75
2022/11/18 11:31:11;;;;;;;4.25;1.58;;;;;;;4.26;39.03;102405.34;4953642;28;20055;-76
2022/11/18 11:33:52;;;;;;;2.70;1.70;;;;;;;4.23;39.24;102394.88;4951153;28;20083;-75
2022/11/18 11:36:38;;;;;;;3.97;1.70;;;;;;;4.16;39.79;102393.47;4948391;28;20047;-75
2022/11/18 11:39:28;;;;;;;4.82;1.98;;;;;;;4.08;40.04;102402.22;4949645;28;20059;-76
2022/11/18 11:42:10;;;;;;;2.80;1.67;;;;;;;4.02;38.81;102394.00;4945270;28;20058;-76
2022/11/18 11:44:53;;;;;;;3.45;1.50;;;;;;;4.04;39.11;102397.59;4949829;28;20048;-75
2022/11/18 11:47:50;;;;;;;3.00;1.27;;;;;;;4.02;39.43;102396.56;4948917;28;20051;-76
2022/11/18 11:50:24;;;;;;;5.00;1.52;;;;;;;4.01;39.86;102392.19;4950514;28;20566;-76
2022/11/18 11:53:21;;;;;;;5.07;1.55;;;;;;;3.97;39.18;102394.53;4950009;28;20795;-76
2022/11/18 11:56:02;;;;;;;3.55;1.77;;;;;;;3.94;41.46;102399.41;4951373;28;20039;-76
2022/11/18 11:59:01;;;;;;;3.13;1.65;;;;;;;3.92;40.29;102383.00;4947518;28;20179;-76
2022/11/18 12:01:38;;;;;;;7.85;2.80;;;;;;;3.91;40.82;102381.19;4951653;28;20062;-76
2022/11/18 12:04:23;;;;;;;2.80;1.25;;;;;;;3.86;43.14;102377.38;4949202;28;20054;-75
2022/11/18 12:06:57;;;;;;;4.25;1.92;;;;;;;3.81;44.59;102368.44;4952021;28;20043;-76
2022/11/18 12:09:39;;;;;;;3.85;2.10;;;;;;;3.78;41.75;102355.38;4949108;28;20058;-76
2022/11/18 12:15:03;;;;;;;3.67;1.67;;;;;;;3.74;40.86;102359.34;4948167;28;20054;-77
2022/11/18 12:17:39;;;;;;;2.95;1.80;;;;;;;3.72;42.40;102378.78;4949200;28;20055;-76
2022/11/18 12:20:38;;;;;;;4.30;2.08;;;;;;;3.70;40.96;102364.97;4948921;28;20085;-76
2022/11/18 12:23:17;;;;;;;2.40;1.58;;;;;;;3.72;41.43;102372.78;4952712;28;20490;-76
2022/11/18 12:25:54;;;;;;;3.08;1.58;;;;;;;3.71;41.79;102368.41;4953128;28;20057;-76
2022/11/18 12:28:32;;;;;;;3.15;1.70;;;;;;;3.71;41.67;102370.97;4948604;28;20054;-76